Regionale Übersicht

METAR und TAF

Montag, 26. August 2019 - 05:16 Uhr

Beobachtete horizontale meteorologische Sicht an ausgewählten Flughäfen. Die vollständigen METARs und Flugwettervorhersagen (TAFs) sind verfügbar, wenn Sie auf das entsprechende Symbol mit der ICAO-Flughafenkennung klicken.

  • Luxemburg (ELLX)

    Taf: TAF ELLX 252300Z 2600/2706 04008KT CAVOK=

    Metar: METAR ELLX 260250Z 06006KT CAVOK 21/16 Q1019 NOSIG=

  • Spangdahlem (ETAD)

    Taf: TAF ETAD 251800Z 2518/2624 07006KT 9999 SCT050 QNH3006INS BECMG 2620/2621 VRB03KT 9999 FEW060 QNH3006INS TX29/2614Z TN16/2604Z LAST NO AMDS AFT 2518=

    Metar: nil

  • Metz/Nancy (LFJL)

    Taf: TAF LFJL 252300Z 2600/2624 VRB03KT CAVOK TEMPO 2620/2624 09008KT=

    Metar: nil

  • Saarbrücken/Intl (EDDR)

    Taf: TAF EDDR 252300Z 2600/2624 06003KT CAVOK=

    Metar: nil

  • Hahn (EDFH)

    Taf: TAF EDFH 252300Z 2600/2624 32004KT CAVOK BECMG 2600/2603 12005KT PROB30 TEMPO 2613/2617 TSRA BKN030CB=

    Metar: nil

  • Ramstein (ETAR)

    Taf: TAF ETAR 260202Z 2602/2708 VRB06KT 9999 FEW060 QNH3009INS BECMG 2611/2612 09009KT 9000 -SHRA VCTS BKN060CB QNH3005INS BECMG 2617/2618 VRB06KT 9999 NSW SCT060 QNH3005INS TX31/2614Z TN09/2701Z=

    Metar: nil

  • Nancy/Ochey (LFSO)

    Taf: TAF LFSO 260200Z NIL=

    Metar: nil

  • Liège Bierset (EBLG)

    Taf: TAF EBLG 252313Z 2600/2706 VRB02KT CAVOK=

    Metar: nil

  • Saint-Dizier (LFSI)

    Taf: TAF LFSI 260200Z 2603/2703 VRB02KT CAVOK=

    Metar: nil

  • Maastricht/Zuid Limburg (EHBK)

    Taf: TAF EHBK 252312Z 2600/2706 07004KT CAVOK=

    Metar: nil

  • Köln/Köln-Bonn (EDDK)

    Taf: TAF EDDK 252300Z 2600/2706 12003KT CAVOK PROB30 TEMPO 2614/2618 TSRA BKN040CB=

    Metar: METAR EDDK 260250Z 08003KT 050V180 CAVOK 17/16 Q1018 NOSIG=

  • Charleroi (EBCI)

    Taf: TAF EBCI 252313Z 2600/2706 VRB02KT CAVOK=

    Metar: nil

  • Wiesbaden (ETOU)

    Taf: TAF ETOU 260300Z 2603/2709 VRB06KT 9999 SCT050 QNH3006INS BECMG 2609/2610 08009KT 9000 -SHRA BKN050 QNH3002INS TEMPO 2612/2615 07009KT 8000 -TSRA BKN040CB BECMG 2617/2618 VRB06KT 9999 NSW SCT050 QNH3001INS TX31/2614Z TN15/2605Z=

    Metar: nil

  • Karlsruhe/Baden-Baden (EDSB)

    Taf: TAF EDSB 252300Z NIL=

    Metar: nil

  • Chalons/Vatry (LFOK)

    Taf: TAF LFOK 252300Z 2600/2624 VRB03KT CAVOK=

    Metar: nil

  • Frankfurt/Main (EDDF)

    Taf: TAF EDDF 252300Z 2600/2706 05004KT CAVOK PROB30 TEMPO 2613/2618 TSRA BKN040CB=

    Metar: METAR EDDF 260250Z VRB03KT CAVOK 17/15 Q1018 NOSIG=

  • Brüssel (EBBR)

    Taf: TAF EBBR 252313Z 2600/2706 VRB02KT CAVOK=

    Metar: METAR EBBR 260250Z 14002KT CAVOK 16/13 Q1019 NOSIG=

  • Düsseldorf (EDDL)

    Taf: TAF EDDL 252300Z 2600/2706 03004KT CAVOK PROB30 TEMPO 2614/2618 TSRA BKN040CB=

    Metar: nil

  • Luxeuil (LFSX)

    Taf: TAF LFSX 260200Z NIL=

    Metar: nil

  • Eindhoven (EHEH)

    Taf: TAF EHEH 252336Z 2600/2706 04004KT CAVOK=

    Metar: nil

  • Niederrhein (EDLV)

    Taf: TAF EDLV 252300Z NIL=

    Metar: nil

  • Dortmund/Wickede (EDLW)

    Taf: TAF EDLW 252300Z NIL=

    Metar: nil

  • Stuttgart/Echterdingen (EDDS)

    Taf: TAF EDDS 252300Z 2600/2624 VRB03KT CAVOK PROB30 TEMPO 2602/2606 1200 BCFG PROB30 TEMPO 2613/2618 TSRA BKN035CB=

    Metar: METAR EDDS 260250Z 07001KT CAVOK 17/16 Q1019=

  • Basel-Mühlhausen (LFSB)

    Taf: TAF LFSB 252300Z 2600/2624 VRB03KT CAVOK=

    Metar: METAR LFSB 260300Z VRB02KT CAVOK 14/13 Q1019 NOSIG=

  • Lille (LFQQ)

    Taf: TAF LFQQ 252300Z 2600/2706 VRB03KT CAVOK TEMPO 2617/2618 03013KT=

    Metar: nil

  • Paris/Charles de Gaulle (LFPG)

    Taf: TAF LFPG 252300Z 2600/2706 02005KT CAVOK TX33/2615Z TN18/2603Z=

    Metar: nil

  • Paderborn/Lippstadt (EDLP)

    Taf: TAF EDLP 252300Z 2600/2624 15003KT CAVOK BECMG 2607/2610 08007KT PROB30 TEMPO 2614/2618 TSRA BKN040CB BECMG 2617/2620 14005KT=

    Metar: nil

  • Paris/Le Bourget (LFPB)

    Taf: TAF LFPB 252300Z 2600/2624 02005KT CAVOK=

    Metar: METAR LFPB 260300Z AUTO 02002KT CAVOK 17/12 Q1018 NOSIG=

  • Rotterdam (EHRD)

    Taf: TAF EHRD 252254Z 2600/2706 05005KT CAVOK PROB30 TEMPO 2603/2606 7000 MIFG=

    Metar: nil

  • Zürich/Kloten (LSZH)

    Taf: TAF LSZH 260225Z 2603/2709 VRB03KT 9999 MIFG NSC TX29/2615Z TN12/2604Z TN12/2704Z PROB40 2603/2608 4000 BR PROB30 2603/2607 2500 BCFG NSC PROB40 2614/2619 05005KT PROB40 2702/2708 5000 MIFG NSC PROB30 2704/2707 3000 BCFG NSC=

    Metar: METAR LSZH 260250Z VRB01KT 9999 MIFG NSC 12/12 Q1020 NOSIG=

  • Oostende/Intl (EBOS)

    Taf: TAF EBOS 252313Z 2600/2706 11004KT CAVOK=

    Metar: nil

  • Paris/Orly (LFPO)

    Taf: TAF LFPO 252300Z 2600/2706 VRB03KT CAVOK BECMG 2605/2608 02005KT=

    Metar: nil

  • Beauvais (LFOB)

    Taf: TAF LFOB 252300Z 2600/2624 VRB03KT CAVOK=

    Metar: nil

  • Münster/Intl (EDDG)

    Taf: TAF EDDG 252300Z 2600/2624 05004KT CAVOK=

    Metar: METAR EDDG 260250Z VRB01KT CAVOK 19/15 Q1019 NOSIG=

  • Duebendorf (LSMD)

    Taf: TAF LSMD 251625Z 2517/2623 VRB03KT CAVOK PROB40 2600/2608 3000 MIFG NSC PROB30 2602/2607 1500 BCFG PROB40 TEMPO 2611/2616 FEW040=

    Metar: nil

  • Villacoublay (LFPV)

    Taf: TAF LFPV 260200Z 2603/2703 03003KT CAVOK=

    Metar: nil

  • Payerne (LSMP)

    Taf: TAF LSMP 251625Z 2517/2623 VRB03KT CAVOK=

    Metar: nil

  • Amsterdam/Schipol (EHAM)

    Taf: TAF EHAM 252254Z 2600/2706 05005KT CAVOK PROB30 TEMPO 2603/2606 7000 MIFG=

    Metar: METAR EHAM 260255Z 06001KT 9000 MIFG NSC 17/16 Q1019 TEMPO 7000=

  • Emmen (LSME)

    Taf: TAF LSME 251625Z 2517/2623 VRB03KT CAVOK PROB40 2600/2608 3000 MIFG NSC PROB30 2602/2607 1500 BCFG PROB40 TEMPO 2611/2616 FEW040=

    Metar: nil

  • Friedrichshafen (EDNY)

    Taf: TAF EDNY 252300Z 2600/2624 VRB03KT CAVOK PROB30 TEMPO 2601/2606 2000 BCFG BECMG 2609/2611 25005KT BECMG 2617/2619 VRB03KT=

    Metar: nil

  • Alpnach (LSMA)

    Taf: TAF LSMA 251625Z 2517/2623 VRB03KT CAVOK PROB40 2523/2608 6000 NSC TEMPO 2609/2618 06008KT FEW070=

    Metar: nil

  • Meiringen (LSMM)

    Taf: TAF LSMM 251625Z 2517/2623 VRB03KT CAVOK PROB40 2600/2608 6000 NSC TEMPO 2609/2618 25007KT FEW060=

    Metar: nil

  • Nürnberg (EDDN)

    Taf: TAF EDDN 252300Z 2600/2624 10005KT CAVOK PROB30 TEMPO 2604/2606 4000 BCFG TEMPO 2615/2624 12015G30KT TSRA SCT030CB BECMG 2616/2618 VRB03KT=

    Metar: METAR EDDN 260250Z VRB01KT CAVOK 17/16 Q1019=

  • Rouen (LFOP)

    Taf: TAF LFOP 252300Z NIL=

    Metar: nil

  • Evreux (LFOE)

    Taf: TAF LFOE 251651Z 2516/2615 CNL=

    Metar: nil

  • Erfurt/Bindersleben (EDDE)

    Taf: TAF EDDE 252300Z 2600/2624 VRB03KT CAVOK BECMG 2607/2609 07006KT PROB30 TEMPO 2611/2618 TSRA BKN050CB=

    Metar: nil